Time;durP1;ratioP1;P1;durP2;ratioP2;P2;SDS_P1;SDS_P2;PMS_P1;PMS_P2;Temp;Humidity;BMP_temperature;BMP_pressure;BME280_temperature;BME280_humidity;BME280_pressure;Samples;Min_cycle;Max_cycle;Signal;HPM_P1;HPM_P2
2021/10/11 00:02:16;;;;;;;;;;;11.20;99.90;;;;;;1959151;73;20197;-77
2021/10/11 00:04:43;;;;;;;;;;;11.20;99.90;;;;;;1958505;72;20129;-77
2021/10/11 00:07:10;;;;;;;;;;;11.30;99.90;;;;;;1957578;73;20646;-77
2021/10/11 00:09:37;;;;;;;;;;;11.30;99.90;;;;;;1958438;73;20215;-78
2021/10/11 00:12:04;;;;;;;;;;;11.40;99.90;;;;;;1957765;73;20208;-78
2021/10/11 00:14:31;;;;;;;;;;;11.40;99.90;;;;;;1960989;73;20114;-78
2021/10/11 00:16:58;;;;;;;;;;;11.40;99.90;;;;;;1955672;73;20167;-77
2021/10/11 00:19:25;;;;;;;;;;;11.40;99.90;;;;;;1961835;72;20188;-77
2021/10/11 00:21:52;;;;;;;;;;;11.40;99.90;;;;;;1957932;73;20125;-77
2021/10/11 00:24:18;;;;;;;;;;;11.50;99.90;;;;;;1953842;73;20223;-76
2021/10/11 00:26:45;;;;;;;;;;;11.40;99.90;;;;;;1955657;73;20185;-77
2021/10/11 00:29:12;;;;;;;;;;;11.40;99.90;;;;;;1959894;73;20242;-78
2021/10/11 00:31:39;;;;;;;;;;;11.50;99.90;;;;;;1958572;73;20184;-77
2021/10/11 00:34:06;;;;;;;;;;;11.50;99.90;;;;;;1961612;72;20126;-77
2021/10/11 00:36:32;;;;;;;;;;;11.50;99.90;;;;;;1958305;72;20315;-78
2021/10/11 00:38:59;;;;;;;;;;;11.50;99.90;;;;;;1960397;73;20444;-78
2021/10/11 00:41:28;;;;;;;;;;;11.50;99.90;;;;;;1960404;73;20111;-77
2021/10/11 00:43:55;;;;;;;;;;;11.50;99.90;;;;;;1964762;72;20157;-78
2021/10/11 00:46:22;;;;;;;;;;;11.50;99.90;;;;;;1960589;73;20205;-76
2021/10/11 00:48:49;;;;;;;;;;;11.50;99.90;;;;;;1960707;73;20198;-77
2021/10/11 00:51:16;;;;;;;;;;;11.50;99.90;;;;;;1962733;72;20185;-77
2021/10/11 00:53:43;;;;;;;;;;;11.60;99.90;;;;;;1958719;73;20559;-77
2021/10/11 00:56:09;;;;;;;;;;;11.50;99.90;;;;;;1960397;72;20178;-76
2021/10/11 00:58:36;;;;;;;;;;;11.60;99.90;;;;;;1959251;72;20119;-77
2021/10/11 01:01:03;;;;;;;;;;;11.60;99.90;;;;;;1958581;72;20170;-77
2021/10/11 01:03:30;;;;;;;;;;;11.60;99.90;;;;;;1963068;73;20178;-77
2021/10/11 01:05:57;;;;;;;;;;;11.60;99.90;;;;;;1963339;72;20130;-77
2021/10/11 01:08:24;;;;;;;;;;;11.60;99.90;;;;;;1960487;72;20164;-80
2021/10/11 01:10:50;;;;;;;;;;;11.60;99.90;;;;;;1962831;73;20177;-77
2021/10/11 01:13:17;;;;;;;;;;;11.60;99.90;;;;;;1959499;72;20160;-78
2021/10/11 01:15:44;;;;;;;;;;;11.60;99.90;;;;;;1957869;73;20278;-79
2021/10/11 01:18:11;;;;;;;;;;;11.60;99.90;;;;;;1955309;73;20182;-77
2021/10/11 01:20:38;;;;;;;;;;;11.70;99.90;;;;;;1962202;71;20233;-77
2021/10/11 01:23:05;;;;;;;;;;;11.70;99.90;;;;;;1955655;73;20119;-77
2021/10/11 01:25:31;;;;;;;;;;;11.70;99.90;;;;;;1961283;71;20524;-77
2021/10/11 01:27:58;;;;;;;;;;;11.70;99.90;;;;;;1956403;72;20196;-77
2021/10/11 01:30:25;;;;;;;;;;;11.60;99.90;;;;;;1953428;73;20102;-76
2021/10/11 01:32:52;;;;;;;;;;;11.70;99.90;;;;;;1964188;71;20474;-77
2021/10/11 01:35:19;;;;;;;;;;;11.70;99.90;;;;;;1957603;73;20254;-77
2021/10/11 01:37:47;;;;;;;;;;;11.60;99.90;;;;;;1959792;71;20195;-77
2021/10/11 01:40:15;;;;;;;;;;;11.60;99.90;;;;;;1958746;73;20170;-76
2021/10/11 01:42:42;;;;;;;;;;;11.60;99.90;;;;;;1960251;72;20229;-77
2021/10/11 01:45:10;;;;;;;;;;;11.70;99.90;;;;;;1959299;73;20186;-77
2021/10/11 01:47:37;;;;;;;;;;;11.70;99.90;;;;;;1957052;73;20166;-77
2021/10/11 01:50:04;;;;;;;;;;;11.60;99.90;;;;;;1959262;73;20119;-77
2021/10/11 01:52:31;;;;;;;;;;;11.70;99.90;;;;;;1955934;73;20215;-76
2021/10/11 01:54:58;;;;;;;;;;;11.70;99.90;;;;;;1957597;73;20155;-77
2021/10/11 01:57:24;;;;;;;;;;;11.70;99.90;;;;;;1957983;72;20189;-76
2021/10/11 01:59:51;;;;;;;;;;;11.70;99.90;;;;;;1955896;71;20172;-77
2021/10/11 02:02:18;;;;;;;;;;;11.70;99.90;;;;;;1957294;73;20228;-77
2021/10/11 02:04:45;;;;;;;;;;;11.80;99.90;;;;;;1958024;73;20183;-78
2021/10/11 02:07:12;;;;;;;;;;;11.80;99.90;;;;;;1957533;73;20414;-77
2021/10/11 02:09:38;;;;;;;;;;;11.80;99.90;;;;;;1958417;72;20549;-78
2021/10/11 02:12:05;;;;;;;;;;;11.80;99.90;;;;;;1961087;73;20155;-77
2021/10/11 02:14:32;;;;;;;;;;;11.80;99.90;;;;;;1961140;73;20205;-77
2021/10/11 02:16:59;;;;;;;;;;;11.80;99.90;;;;;;1962514;73;20228;-77
2021/10/11 02:19:26;;;;;;;;;;;11.90;99.90;;;;;;1958001;73;20157;-77
2021/10/11 02:21:53;;;;;;;;;;;11.90;99.90;;;;;;1961232;73;20292;-77
2021/10/11 02:24:19;;;;;;;;;;;11.90;99.90;;;;;;1961617;72;20487;-77
2021/10/11 02:26:46;;;;;;;;;;;11.90;99.90;;;;;;1961716;72;20207;-77
2021/10/11 02:29:13;;;;;;;;;;;11.90;99.90;;;;;;1958666;73;20181;-77
2021/10/11 02:31:40;;;;;;;;;;;12.00;99.90;;;;;;1957842;73;20430;-76
2021/10/11 02:34:07;;;;;;;;;;;11.90;99.90;;;;;;1961902;72;20213;-77
2021/10/11 02:36:33;;;;;;;;;;;11.90;99.90;;;;;;1961078;73;20442;-77
2021/10/11 02:39:00;;;;;;;;;;;11.90;99.90;;;;;;1960527;73;20156;-77
2021/10/11 02:41:27;;;;;;;;;;;11.90;99.90;;;;;;1962934;72;20114;-76
2021/10/11 02:43:54;;;;;;;;;;;12.00;99.90;;;;;;1958695;73;20245;-77
2021/10/11 02:46:21;;;;;;;;;;;12.00;99.90;;;;;;1953886;73;20101;-76
2021/10/11 02:48:47;;;;;;;;;;;12.00;99.90;;;;;;1956662;73;20176;-76
2021/10/11 02:51:14;;;;;;;;;;;12.00;99.90;;;;;;1959925;73;20174;-76
2021/10/11 02:53:41;;;;;;;;;;;12.00;99.90;;;;;;1957653;73;20135;-77
2021/10/11 02:56:08;;;;;;;;;;;12.00;99.90;;;;;;1961913;72;20180;-76
2021/10/11 02:58:35;;;;;;;;;;;11.90;99.90;;;;;;1961493;72;20214;-76
2021/10/11 03:01:01;;;;;;;;;;;12.00;99.90;;;;;;1961003;73;20125;-77
2021/10/11 03:03:28;;;;;;;;;;;11.90;99.90;;;;;;1961232;72;20209;-77
2021/10/11 03:05:55;;;;;;;;;;;12.00;99.90;;;;;;1963886;73;20119;-77
2021/10/11 03:08:22;;;;;;;;;;;12.00;99.90;;;;;;1959328;73;20172;-77
2021/10/11 03:10:48;;;;;;;;;;;11.90;99.90;;;;;;1959361;72;20221;-76
2021/10/11 03:13:15;;;;;;;;;;;12.00;99.90;;;;;;1955265;73;20478;-77
2021/10/11 03:15:42;;;;;;;;;;;12.00;99.90;;;;;;1957206;73;20173;-76
2021/10/11 03:18:09;;;;;;;;;;;11.90;99.90;;;;;;1953074;73;20170;-77
2021/10/11 03:20:36;;;;;;;;;;;11.90;99.90;;;;;;1951947;73;20119;-77
2021/10/11 03:23:02;;;;;;;;;;;12.00;99.90;;;;;;1954861;72;20497;-76
2021/10/11 03:25:29;;;;;;;;;;;11.90;99.90;;;;;;1957276;73;20206;-76
2021/10/11 03:27:56;;;;;;;;;;;11.80;99.90;;;;;;1961018;73;20812;-76
2021/10/11 03:30:23;;;;;;;;;;;11.80;99.90;;;;;;1961202;73;20167;-77
2021/10/11 03:32:50;;;;;;;;;;;11.80;99.90;;;;;;1959341;73;20115;-77
2021/10/11 03:35:16;;;;;;;;;;;11.80;99.90;;;;;;1958761;73;20470;-77
2021/10/11 03:37:43;;;;;;;;;;;11.90;99.90;;;;;;1955046;72;20172;-77
2021/10/11 03:40:10;;;;;;;;;;;11.90;99.90;;;;;;1961675;72;20400;-77
2021/10/11 03:42:37;;;;;;;;;;;11.80;99.90;;;;;;1958744;72;20183;-78
2021/10/11 03:45:04;;;;;;;;;;;11.90;99.90;;;;;;1959278;73;20153;-77
2021/10/11 03:47:31;;;;;;;;;;;11.90;99.90;;;;;;1956576;73;20240;-77
2021/10/11 03:49:57;;;;;;;;;;;11.90;99.90;;;;;;1957173;72;20195;-77
2021/10/11 03:52:24;;;;;;;;;;;11.90;99.90;;;;;;1957498;73;20179;-76
2021/10/11 03:54:51;;;;;;;;;;;11.90;99.90;;;;;;1960128;72;20233;-77
2021/10/11 03:57:18;;;;;;;;;;;11.90;99.90;;;;;;1959961;72;20118;-78
2021/10/11 03:59:45;;;;;;;;;;;11.90;99.90;;;;;;1962070;72;20264;-77
2021/10/11 04:02:12;;;;;;;;;;;11.90;99.90;;;;;;1961525;73;20200;-77
2021/10/11 04:04:38;;;;;;;;;;;11.90;99.90;;;;;;1956786;73;20155;-76
2021/10/11 04:07:09;;;;;;;;;;;11.90;99.90;;;;;;1957772;73;20163;-77
2021/10/11 04:09:34;;;;;;;;;;;12.00;99.90;;;;;;1956837;71;20550;-77
2021/10/11 04:12:06;;;;;;;;;;;12.00;99.90;;;;;;1957777;73;20403;-77
2021/10/11 04:14:29;;;;;;;;;;;12.00;99.90;;;;;;1957666;73;20159;-77
2021/10/11 04:16:56;;;;;;;;;;;12.00;99.90;;;;;;1956243;73;20206;-78
2021/10/11 04:19:23;;;;;;;;;;;12.00;99.90;;;;;;1960616;73;20206;-78
2021/10/11 04:21:49;;;;;;;;;;;12.00;99.90;;;;;;1959000;73;20154;-77
2021/10/11 04:24:16;;;;;;;;;;;12.00;99.90;;;;;;1956921;72;20162;-77
2021/10/11 04:26:43;;;;;;;;;;;12.00;99.90;;;;;;1958540;73;20565;-77
2021/10/11 04:29:10;;;;;;;;;;;12.00;99.90;;;;;;1958717;72;20179;-77
2021/10/11 04:31:37;;;;;;;;;;;12.00;99.90;;;;;;1959601;73;20196;-79
2021/10/11 04:34:04;;;;;;;;;;;12.00;99.90;;;;;;1960751;73;20269;-78
2021/10/11 04:36:30;;;;;;;;;;;12.00;99.90;;;;;;1956283;72;20219;-77
2021/10/11 04:38:57;;;;;;;;;;;12.00;99.90;;;;;;1960173;72;20202;-77
2021/10/11 04:41:24;;;;;;;;;;;12.00;99.90;;;;;;1957165;73;20180;-78
2021/10/11 04:43:54;;;;;;;;;;;12.00;99.90;;;;;;1957121;72;20204;-79
2021/10/11 04:46:20;;;;;;;;;;;12.00;99.90;;;;;;1952024;72;20996;-78
2021/10/11 04:48:48;;;;;;;;;;;12.00;99.90;;;;;;1953877;73;20125;-76
2021/10/11 04:51:14;;;;;;;;;;;12.00;99.90;;;;;;1958759;72;20308;-76
2021/10/11 04:53:41;;;;;;;;;;;12.00;99.90;;;;;;1957511;72;20137;-78
2021/10/11 04:56:08;;;;;;;;;;;11.90;99.90;;;;;;1960770;73;20111;-77
2021/10/11 04:58:35;;;;;;;;;;;11.90;99.90;;;;;;1964630;72;20440;-77
2021/10/11 05:01:01;;;;;;;;;;;11.90;99.90;;;;;;1964662;72;20153;-77
2021/10/11 05:03:28;;;;;;;;;;;11.90;99.90;;;;;;1959030;72;20573;-78
2021/10/11 05:05:55;;;;;;;;;;;11.90;99.90;;;;;;1958661;72;20179;-77
2021/10/11 05:08:22;;;;;;;;;;;11.90;99.90;;;;;;1953996;72;21080;-77
2021/10/11 05:10:49;;;;;;;;;;;11.90;99.90;;;;;;1957191;73;20254;-77
2021/10/11 05:13:15;;;;;;;;;;;11.90;99.90;;;;;;1964781;71;20647;-77
2021/10/11 05:15:42;;;;;;;;;;;12.00;99.90;;;;;;1959230;72;20118;-76
2021/10/11 05:18:09;;;;;;;;;;;12.00;99.90;;;;;;1963950;71;20170;-75
2021/10/11 05:20:37;;;;;;;;;;;12.00;99.90;;;;;;1957242;72;20460;-77
2021/10/11 05:23:04;;;;;;;;;;;12.00;99.90;;;;;;1962831;71;20522;-77
2021/10/11 05:25:31;;;;;;;;;;;12.00;99.90;;;;;;1961358;71;21143;-77
2021/10/11 05:27:58;;;;;;;;;;;12.10;99.90;;;;;;1961523;71;20113;-78
2021/10/11 05:30:25;;;;;;;;;;;12.00;99.90;;;;;;1922558;73;20337;-78
2021/10/11 05:32:52;;;;;;;;;;;12.10;99.90;;;;;;1919169;73;20246;-78
2021/10/11 05:35:18;;;;;;;;;;;12.10;99.90;;;;;;1961598;72;20205;-78
2021/10/11 05:37:45;;;;;;;;;;;12.10;99.90;;;;;;1963538;72;20163;-80
2021/10/11 05:40:12;;;;;;;;;;;12.10;99.90;;;;;;1967829;71;20247;-78
2021/10/11 05:42:39;;;;;;;;;;;12.10;99.90;;;;;;1961652;71;20337;-78
2021/10/11 05:45:06;;;;;;;;;;;12.20;99.90;;;;;;1962199;72;20176;-78
2021/10/11 05:47:33;;;;;;;;;;;12.10;99.90;;;;;;1960266;72;20216;-76
2021/10/11 05:50:01;;;;;;;;;;;12.10;99.90;;;;;;1953969;73;20154;-78
2021/10/11 05:52:28;;;;;;;;;;;12.10;99.90;;;;;;1959650;72;20190;-78
2021/10/11 05:54:54;;;;;;;;;;;12.00;99.90;;;;;;1958701;72;20191;-77
2021/10/11 05:57:21;;;;;;;;;;;12.10;99.90;;;;;;1962056;71;20114;-76
2021/10/11 05:59:48;;;;;;;;;;;12.10;99.90;;;;;;1969759;71;20217;-77
2021/10/11 06:02:15;;;;;;;;;;;12.10;99.90;;;;;;1965439;72;20152;-78
2021/10/11 06:04:43;;;;;;;;;;;12.20;99.90;;;;;;1965562;71;20521;-78
2021/10/11 06:07:10;;;;;;;;;;;12.20;99.90;;;;;;1960610;71;20180;-78
2021/10/11 06:09:36;;;;;;;;;;;12.20;99.90;;;;;;1955101;72;20255;-78
2021/10/11 06:12:03;;;;;;;;;;;12.20;99.90;;;;;;1954481;73;20125;-78
2021/10/11 06:14:30;;;;;;;;;;;12.20;99.90;;;;;;1965933;72;20489;-77
2021/10/11 06:16:57;;;;;;;;;;;12.20;99.90;;;;;;1956659;73;20228;-78
2021/10/11 06:19:24;;;;;;;;;;;12.20;99.90;;;;;;1959999;71;20579;-78
2021/10/11 06:21:50;;;;;;;;;;;12.20;99.90;;;;;;1964043;73;20254;-78
2021/10/11 06:24:17;;;;;;;;;;;12.20;99.90;;;;;;1964295;71;20148;-78
2021/10/11 06:26:44;;;;;;;;;;;12.30;99.90;;;;;;1962983;71;20201;-79
2021/10/11 06:29:11;;;;;;;;;;;12.30;99.90;;;;;;1954769;72;20194;-79
2021/10/11 06:31:38;;;;;;;;;;;12.30;99.90;;;;;;1965023;72;20146;-79
2021/10/11 06:34:05;;;;;;;;;;;12.30;99.90;;;;;;1956990;72;20208;-79
2021/10/11 06:36:35;;;;;;;;;;;12.20;99.90;;;;;;1967610;71;20139;-79
2021/10/11 06:39:01;;;;;;;;;;;12.20;99.90;;;;;;1955863;72;20182;-77
2021/10/11 06:41:28;;;;;;;;;;;12.20;99.90;;;;;;1958298;73;20411;-77
2021/10/11 06:43:55;;;;;;;;;;;12.20;99.90;;;;;;1956963;73;20160;-77
2021/10/11 06:46:22;;;;;;;;;;;12.20;99.90;;;;;;1956877;73;20197;-77
2021/10/11 06:48:48;;;;;;;;;;;12.30;99.90;;;;;;1963889;72;20259;-77
2021/10/11 06:51:15;;;;;;;;;;;12.30;99.90;;;;;;1959390;72;20129;-77
2021/10/11 06:53:42;;;;;;;;;;;12.40;99.90;;;;;;1958911;72;20467;-77
2021/10/11 06:56:09;;;;;;;;;;;12.40;99.90;;;;;;1962490;71;20246;-77
2021/10/11 06:58:36;;;;;;;;;;;12.40;99.90;;;;;;1960343;71;20164;-78
2021/10/11 07:01:02;;;;;;;;;;;12.40;99.90;;;;;;1961315;71;20111;-78
2021/10/11 07:03:30;;;;;;;;;;;12.40;99.90;;;;;;1957327;71;20433;-78
2021/10/11 07:06:04;;;;;;;;;;;12.40;99.90;;;;;;1960109;72;20150;-79
2021/10/11 07:08:32;;;;;;;;;;;12.40;99.90;;;;;;1964524;71;20165;-79
2021/10/11 07:10:59;;;;;;;;;;;12.40;99.90;;;;;;1961746;72;20124;-78
2021/10/11 07:13:26;;;;;;;;;;;12.40;99.90;;;;;;1959538;71;20195;-79
2021/10/11 07:15:53;;;;;;;;;;;12.50;99.90;;;;;;1962155;71;20196;-78
2021/10/11 07:18:21;;;;;;;;;;;12.40;99.90;;;;;;1969594;71;20251;-79
2021/10/11 07:20:48;;;;;;;;;;;12.40;99.90;;;;;;1960121;72;20172;-77
2021/10/11 07:23:15;;;;;;;;;;;12.50;99.90;;;;;;1965559;71;20166;-79
2021/10/11 07:25:42;;;;;;;;;;;12.50;99.90;;;;;;1960520;72;20158;-78
2021/10/11 07:28:09;;;;;;;;;;;12.50;99.90;;;;;;1965972;71;20200;-79
2021/10/11 07:30:36;;;;;;;;;;;12.50;99.90;;;;;;1961163;73;20165;-79
2021/10/11 07:33:05;;;;;;;;;;;12.60;99.90;;;;;;1964134;71;20405;-80
2021/10/11 07:35:31;;;;;;;;;;;12.60;99.90;;;;;;1965893;72;20139;-80
2021/10/11 07:37:59;;;;;;;;;;;12.70;99.90;;;;;;1967736;72;20224;-80
2021/10/11 07:40:26;;;;;;;;;;;12.80;99.90;;;;;;1967299;71;20525;-81
2021/10/11 07:42:52;;;;;;;;;;;12.80;99.90;;;;;;1967260;71;20166;-82
2021/10/11 07:45:19;;;;;;;;;;;12.90;99.90;;;;;;1962133;71;20157;-80
2021/10/11 07:47:46;;;;;;;;;;;13.00;99.90;;;;;;1962883;71;20216;-79
2021/10/11 07:50:13;;;;;;;;;;;13.00;99.90;;;;;;1968066;71;20378;-79
2021/10/11 07:52:40;;;;;;;;;;;13.00;99.90;;;;;;1968068;71;20241;-80
2021/10/11 07:55:07;;;;;;;;;;;13.00;99.90;;;;;;1969338;71;20166;-81
2021/10/11 07:57:34;;;;;;;;;;;13.10;99.90;;;;;;1968277;71;20152;-80
2021/10/11 08:00:05;;;;;;;;;;;13.10;99.90;;;;;;1968971;71;20201;-80
2021/10/11 08:02:31;;;;;;;;;;;13.10;99.90;;;;;;1967775;72;20244;-80
2021/10/11 08:04:58;;;;;;;;;;;13.20;99.90;;;;;;1968068;71;20444;-81
2021/10/11 08:07:25;;;;;;;;;;;13.20;99.90;;;;;;1966448;72;20204;-79
2021/10/11 08:09:52;;;;;;;;;;;13.20;99.90;;;;;;1968256;72;20166;-80
2021/10/11 08:12:19;;;;;;;;;;;13.20;99.90;;;;;;1968897;71;20425;-80
2021/10/11 08:14:45;;;;;;;;;;;13.20;99.90;;;;;;1965844;71;20159;-80
2021/10/11 08:17:13;;;;;;;;;;;13.20;99.90;;;;;;1963210;71;20415;-81
2021/10/11 08:19:40;;;;;;;;;;;13.20;99.90;;;;;;1967708;72;20491;-80
2021/10/11 08:22:07;;;;;;;;;;;13.30;99.90;;;;;;1967840;71;20185;-80
2021/10/11 08:24:34;;;;;;;;;;;13.30;99.90;;;;;;1967303;71;20270;-80
2021/10/11 08:27:00;;;;;;;;;;;13.40;99.90;;;;;;1968190;72;20115;-80
2021/10/11 08:29:27;;;;;;;;;;;13.40;99.90;;;;;;1966052;72;20197;-78
2021/10/11 08:31:54;;;;;;;;;;;13.40;99.90;;;;;;1968162;72;20723;-79
2021/10/11 08:34:21;;;;;;;;;;;13.40;99.90;;;;;;1963184;72;20223;-81
2021/10/11 08:36:48;;;;;;;;;;;13.50;99.90;;;;;;1966831;71;20325;-80
2021/10/11 08:39:15;;;;;;;;;;;13.50;99.90;;;;;;1960926;71;20845;-79
2021/10/11 08:41:43;;;;;;;;;;;13.50;99.90;;;;;;1969023;72;20174;-79
2021/10/11 08:44:12;;;;;;;;;;;13.60;99.90;;;;;;1962851;71;20127;-78
2021/10/11 08:46:39;;;;;;;;;;;13.60;99.90;;;;;;1963264;71;20201;-80
2021/10/11 08:49:07;;;;;;;;;;;13.60;99.90;;;;;;1960311;72;20197;-78
2021/10/11 08:51:34;;;;;;;;;;;13.70;99.90;;;;;;1958285;73;20174;-80
2021/10/11 08:54:01;;;;;;;;;;;13.70;99.90;;;;;;1957081;72;20127;-78
2021/10/11 08:56:27;;;;;;;;;;;13.70;99.90;;;;;;1965313;73;20189;-79
2021/10/11 08:58:54;;;;;;;;;;;13.70;99.90;;;;;;1958274;71;20173;-78
2021/10/11 09:01:22;;;;;;;;;;;13.80;99.90;;;;;;1969308;72;20384;-78
2021/10/11 09:03:49;;;;;;;;;;;13.80;99.90;;;;;;1962802;73;20122;-79
2021/10/11 09:06:16;;;;;;;;;;;13.80;99.90;;;;;;1962041;72;20827;-79
2021/10/11 09:08:43;;;;;;;;;;;13.90;99.90;;;;;;1967426;72;20481;-79
2021/10/11 09:11:11;;;;;;;;;;;14.00;99.90;;;;;;1969003;72;20256;-79
2021/10/11 09:13:44;;;;;;;;;;;14.10;99.90;;;;;;1906576;74;20211;-79
2021/10/11 09:16:14;;;;;;;;;;;14.10;99.90;;;;;;1891972;75;20979;-80
2021/10/11 09:18:43;;;;;;;;;;;14.20;99.90;;;;;;1926263;73;20184;-79
2021/10/11 09:21:09;;;;;;;;;;;14.30;99.90;;;;;;1923134;73;20205;-80
2021/10/11 09:23:36;;;;;;;;;;;14.40;99.90;;;;;;1923028;74;20123;-79
2021/10/11 09:26:05;;;;;;;;;;;14.40;99.90;;;;;;1918907;74;20161;-79
2021/10/11 09:28:31;;;;;;;;;;;14.50;99.90;;;;;;1925966;73;20137;-78
2021/10/11 09:31:00;;;;;;;;;;;14.60;99.90;;;;;;1921782;73;20119;-79
2021/10/11 09:33:27;;;;;;;;;;;14.60;99.90;;;;;;1911696;73;20220;-79
2021/10/11 09:35:54;;;;;;;;;;;14.70;99.90;;;;;;1922355;74;20222;-78
2021/10/11 09:38:28;;;;;;;;;;;14.70;99.90;;;;;;1918156;73;20231;-78
2021/10/11 09:40:59;;;;;;;;;;;14.70;99.90;;;;;;1929312;73;20175;-77
2021/10/11 09:43:27;;;;;;;;;;;14.70;99.90;;;;;;1923416;74;20242;-77
2021/10/11 09:45:54;;;;;;;;;;;14.70;99.90;;;;;;1925065;73;20195;-78
2021/10/11 09:48:23;;;;;;;;;;;14.70;99.90;;;;;;1928074;73;20228;-79
2021/10/11 09:51:09;;;;;;;;;;;14.70;99.90;;;;;;1922964;74;20172;-78
2021/10/11 09:53:36;;;;;;;;;;;14.70;99.90;;;;;;1923017;74;20216;-77
2021/10/11 09:56:03;;;;;;;;;;;14.70;99.90;;;;;;1935932;73;20174;-78
2021/10/11 09:58:30;;;;;;;;;;;14.70;99.90;;;;;;1944554;73;20169;-77
2021/10/11 10:00:57;;;;;;;;;;;14.70;99.90;;;;;;1929491;73;20114;-78
2021/10/11 10:03:25;;;;;;;;;;;14.70;99.90;;;;;;1946463;73;20155;-80
2021/10/11 10:05:53;;;;;;;;;;;14.60;99.90;;;;;;1943932;73;20171;-80
2021/10/11 10:08:28;;;;;;;;;;;14.60;99.90;;;;;;1940423;73;20169;-79
2021/10/11 10:10:53;;;;;;;;;;;14.60;99.90;;;;;;1937517;73;20224;-77
2021/10/11 10:13:21;;;;;;;;;;;14.60;99.90;;;;;;1940566;73;20181;-76
2021/10/11 10:15:48;;;;;;;;;;;14.60;99.90;;;;;;1940673;73;20214;-78
2021/10/11 10:18:16;;;;;;;;;;;14.60;99.90;;;;;;1943629;73;20566;-77
2021/10/11 10:20:53;;;;;;;;;;;14.50;99.90;;;;;;1940744;73;20173;-75
2021/10/11 10:23:27;;;;;;;;;;;14.60;99.90;;;;;;1941440;73;20831;-77
2021/10/11 10:25:55;;;;;;;;;;;14.60;99.90;;;;;;1937424;73;20247;-77
2021/10/11 10:28:24;;;;;;;;;;;14.60;99.90;;;;;;1945177;73;20159;-77
2021/10/11 10:30:58;;;;;;;;;;;14.60;99.90;;;;;;1933848;73;20902;-79
2021/10/11 10:33:26;;;;;;;;;;;14.60;99.90;;;;;;1938706;73;20108;-77
2021/10/11 10:35:53;;;;;;;;;;;14.60;99.90;;;;;;1926449;73;20182;-75
2021/10/11 10:38:21;;;;;;;;;;;14.70;99.90;;;;;;1938550;73;20184;-75
2021/10/11 10:40:49;;;;;;;;;;;14.70;99.90;;;;;;1943298;73;20292;-77
2021/10/11 10:43:17;;;;;;;;;;;14.80;99.90;;;;;;1936940;73;20108;-76
2021/10/11 10:45:45;;;;;;;;;;;14.90;99.90;;;;;;1942310;73;20614;-76
2021/10/11 10:48:25;;;;;;;;;;;14.90;99.90;;;;;;1943221;73;20192;-77
2021/10/11 10:50:55;;;;;;;;;;;14.90;99.90;;;;;;1938004;73;20143;-76
2021/10/11 10:53:23;;;;;;;;;;;14.90;99.90;;;;;;1936194;73;20175;-76
2021/10/11 10:55:50;;;;;;;;;;;15.20;99.90;;;;;;1938813;73;20748;-76
2021/10/11 10:58:17;;;;;;;;;;;15.30;99.90;;;;;;1942185;73;20458;-77
2021/10/11 11:00:45;;;;;;;;;;;15.50;99.90;;;;;;1939287;73;20224;-77
2021/10/11 11:03:14;;;;;;;;;;;15.70;99.90;;;;;;1935229;73;20574;-77
2021/10/11 11:05:42;;;;;;;;;;;15.90;99.90;;;;;;1939602;73;20883;-77
2021/10/11 11:08:09;;;;;;;;;;;16.10;99.90;;;;;;1938299;73;20171;-77
2021/10/11 11:10:37;;;;;;;;;;;16.20;99.90;;;;;;1942900;73;20235;-77
2021/10/11 11:13:14;;;;;;;;;;;16.20;99.90;;;;;;1939840;73;20419;-77
2021/10/11 11:15:38;;;;;;;;;;;16.30;99.90;;;;;;1944112;73;20461;-77
2021/10/11 11:18:09;;;;;;;;;;;16.40;99.90;;;;;;1934991;73;20159;-77
2021/10/11 11:20:38;;;;;;;;;;;16.50;99.90;;;;;;1935343;73;20208;-77
2021/10/11 11:23:06;;;;;;;;;;;16.60;99.90;;;;;;1943247;73;20222;-77
2021/10/11 11:25:34;;;;;;;;;;;16.70;99.90;;;;;;1941239;73;20124;-77
2021/10/11 11:28:03;;;;;;;;;;;16.80;99.90;;;;;;1942744;73;20516;-77
2021/10/11 11:30:30;;;;;;;;;;;17.00;99.90;;;;;;1934599;73;20213;-77
2021/10/11 11:33:04;;;;;;;;;;;17.00;99.90;;;;;;1940225;73;20186;-77
2021/10/11 11:35:32;;;;;;;;;;;16.80;99.90;;;;;;1936915;73;20177;-77
2021/10/11 11:38:03;;;;;;;;;;;16.70;99.90;;;;;;1938618;73;20116;-77
2021/10/11 11:40:32;;;;;;;;;;;16.60;99.90;;;;;;1937196;73;20231;-77
2021/10/11 11:42:59;;;;;;;;;;;16.40;99.90;;;;;;1943802;73;20112;-77
2021/10/11 11:45:40;;;;;;;;;;;16.10;99.90;;;;;;1936389;73;20173;-78
2021/10/11 11:48:08;;;;;;;;;;;16.10;99.90;;;;;;1938655;73;20228;-77
2021/10/11 11:50:35;;;;;;;;;;;16.00;99.90;;;;;;1934062;73;20119;-78
2021/10/11 11:53:03;;;;;;;;;;;15.80;99.90;;;;;;1937874;73;20236;-78
2021/10/11 11:55:31;;;;;;;;;;;15.70;99.90;;;;;;1935841;73;20178;-77
2021/10/11 11:57:58;;;;;;;;;;;15.30;99.90;;;;;;1938212;73;20169;-79
2021/10/11 12:00:25;;;;;;;;;;;15.00;99.90;;;;;;1944894;73;20226;-78
2021/10/11 12:02:53;;;;;;;;;;;14.70;99.90;;;;;;1941978;73;20163;-77
2021/10/11 12:05:20;;;;;;;;;;;14.60;99.90;;;;;;1943742;73;20194;-77
2021/10/11 12:07:47;;;;;;;;;;;14.50;99.90;;;;;;1942113;73;20155;-78
2021/10/11 12:10:22;;;;;;;;;;;14.30;99.90;;;;;;1932992;73;20270;-77
2021/10/11 12:12:56;;;;;;;;;;;14.20;99.90;;;;;;1937826;73;20334;-78
2021/10/11 12:15:23;;;;;;;;;;;14.50;99.90;;;;;;1935384;73;20121;-77
2021/10/11 12:17:52;;;;;;;;;;;14.90;99.90;;;;;;1942015;73;20189;-77
2021/10/11 12:20:18;;;;;;;;;;;15.20;99.90;;;;;;1940418;73;20178;-78
2021/10/11 12:22:47;;;;;;;;;;;15.40;99.90;;;;;;1942472;73;20250;-77
2021/10/11 12:25:14;;;;;;;;;;;15.70;99.90;;;;;;1938073;73;20205;-78
2021/10/11 12:27:40;;;;;;;;;;;16.00;99.90;;;;;;1941245;73;20150;-78
2021/10/11 12:30:11;;;;;;;;;;;16.30;99.90;;;;;;1938154;73;20165;-78
2021/10/11 12:32:38;;;;;;;;;;;16.50;99.90;;;;;;1939322;73;20116;-78
2021/10/11 12:35:05;;;;;;;;;;;16.40;99.90;;;;;;1938462;73;20160;-77
2021/10/11 12:37:36;;;;;;;;;;;16.40;99.90;;;;;;1941075;73;20157;-78
2021/10/11 12:40:04;;;;;;;;;;;16.50;99.90;;;;;;1938776;73;20164;-77
2021/10/11 12:42:31;;;;;;;;;;;17.00;99.90;;;;;;1938493;73;20213;-76
2021/10/11 12:45:00;;;;;;;;;;;17.50;99.90;;;;;;1934465;73;20181;-77
2021/10/11 12:47:29;;;;;;;;;;;17.70;99.90;;;;;;1939741;73;20198;-77
2021/10/11 12:49:57;;;;;;;;;;;17.90;99.90;;;;;;1928364;73;20221;-77
2021/10/11 12:52:31;;;;;;;;;;;17.90;99.90;;;;;;1938633;73;20188;-77
2021/10/11 12:55:09;;;;;;;;;;;17.30;99.90;;;;;;1938231;73;20174;-77
2021/10/11 12:57:35;;;;;;;;;;;16.90;99.90;;;;;;1942090;73;20451;-78
2021/10/11 13:00:03;;;;;;;;;;;16.60;99.90;;;;;;1937895;73;20167;-77
2021/10/11 13:02:30;;;;;;;;;;;16.20;99.90;;;;;;1941946;73;20124;-77
2021/10/11 13:04:57;;;;;;;;;;;16.00;99.90;;;;;;1936267;73;20125;-76
2021/10/11 13:07:24;;;;;;;;;;;15.90;99.90;;;;;;1934904;73;20200;-78
2021/10/11 13:09:51;;;;;;;;;;;15.70;99.90;;;;;;1938387;73;20218;-77
2021/10/11 13:12:37;;;;;;;;;;;15.60;99.90;;;;;;1937349;73;20182;-76
2021/10/11 13:15:04;;;;;;;;;;;15.50;99.90;;;;;;1916654;74;20231;-74
2021/10/11 13:17:32;;;;;;;;;;;15.60;99.90;;;;;;1918876;74;20515;-74
2021/10/11 13:19:58;;;;;;;;;;;15.40;99.90;;;;;;1920071;74;20202;-74
2021/10/11 13:22:25;;;;;;;;;;;15.50;99.90;;;;;;1910859;73;20188;-75
2021/10/11 13:24:52;;;;;;;;;;;15.50;99.90;;;;;;1936967;73;20222;-74
2021/10/11 13:27:19;;;;;;;;;;;15.40;99.90;;;;;;1941719;73;20370;-74
2021/10/11 14:32:44;;;;;;;;;;;16.20;99.90;;;;;;1936607;73;20148;-73
2021/10/11 15:55:20;;;;;;;;;;;15.10;99.90;;;;;;1936210;73;20222;-73
2021/10/11 15:59:53;;;;;;;;;;;15.00;99.90;;;;;;1940940;73;20437;-72
2021/10/11 16:02:30;;;;;;;;;;;14.90;99.90;;;;;;1936767;73;20145;-73
2021/10/11 16:04:47;;;;;;;;;;;14.80;99.90;;;;;;1938356;73;20195;-74
2021/10/11 16:07:14;;;;;;;;;;;14.70;99.90;;;;;;1939511;73;20178;-73
2021/10/11 16:09:41;;;;;;;;;;;14.60;99.90;;;;;;1943680;73;20161;-73
2021/10/11 16:12:08;;;;;;;;;;;14.60;99.90;;;;;;1942602;73;20197;-73
2021/10/11 16:14:35;;;;;;;;;;;14.40;99.90;;;;;;1942999;73;20120;-73
2021/10/11 16:17:03;;;;;;;;;;;14.40;99.90;;;;;;1939603;73;20189;-73
2021/10/11 16:19:29;;;;;;;;;;;14.40;99.90;;;;;;1939788;73;20282;-73
2021/10/11 16:21:57;;;;;;;;;;;14.40;99.90;;;;;;1938986;73;20175;-73
2021/10/11 16:24:23;;;;;;;;;;;14.30;99.90;;;;;;1938809;73;20125;-73
2021/10/11 16:26:50;;;;;;;;;;;14.30;99.90;;;;;;1937916;73;20480;-72
2021/10/11 16:29:17;;;;;;;;;;;14.30;99.90;;;;;;1939900;73;20564;-73
2021/10/11 16:31:44;;;;;;;;;;;14.30;99.90;;;;;;1938151;73;20249;-73
2021/10/11 16:34:11;;;;;;;;;;;14.20;99.90;;;;;;1937472;73;20166;-73
2021/10/11 16:36:38;;;;;;;;;;;14.10;99.90;;;;;;1940511;73;20167;-73
2021/10/11 16:39:05;;;;;;;;;;;14.00;99.90;;;;;;1940810;73;20352;-72
2021/10/11 16:41:32;;;;;;;;;;;13.90;99.90;;;;;;1937204;73;20414;-72
2021/10/11 16:43:59;;;;;;;;;;;13.90;99.90;;;;;;1941105;73;20181;-73